Latest Weather Observations for Spitfire Channel

IDQ60901

Issued at 6:01 pm EST Tuesday 28 February 2017 (issued every 10 minutes, with the page automatically refreshed every 10 minutes)

About weather observations | Map of Brisbane area stations | Latest observations for Brisbane area | Other Formats
Station Details ID: 040927 Name: SPITFIRE CHANNEL BEACON Lat: -27.05 Lon: 153.27 Height: 7.0 m
Data from the previous 72 hours. | See also: Recent months for locations in Queensland
Date/Time
EST
Temp
°C
App
Temp
°C
Dew
Point
°C
Rel
Hum
%
Delta-T
°C
Wind Press
QNH
hPa
Press
MSL
hPa
Rain since
9am
mm
Dir  Spd
km/h
Gust
km/h
Spd
kts
Gust
kts
28/05:30pm - - - - - ESE 20 26 11 14 - - -
28/05:00pm - - - - - E 24 28 13 15 - - -
28/04:30pm - - - - - E 22 24 12 13 - - -
28/04:00pm - - - - - E 20 24 11 13 - - -
28/03:30pm - - - - - ESE 24 28 13 15 - - -
28/03:00pm - - - - - E 20 24 11 13 - - -
28/02:30pm - - - - - ESE 20 24 11 13 - - -
28/02:00pm - - - - - SE 20 24 11 13 - - -
28/01:30pm - - - - - SSE 22 24 12 13 - - -
28/01:00pm - - - - - SSE 20 22 11 12 - - -
28/12:30pm - - - - - SSE 22 26 12 14 - - -
28/12:00pm - - - - - SSE 22 26 12 14 - - -
28/11:30am - - - - - SSE 24 28 13 15 - - -
28/11:00am - - - - - SSE 22 28 12 15 - - -
28/10:30am - - - - - SSE 24 30 13 16 - - -
28/10:00am - - - - - SSE 20 26 11 14 - - -
28/09:30am - - - - - S 22 24 12 13 - - -
28/09:00am - - - - - S 22 28 12 15 - - -
28/08:30am - - - - - SSE 24 28 13 15 - - -
28/08:00am - - - - - S 26 32 14 17 - - -
28/07:30am - - - - - S 30 35 16 19 - - -
28/07:00am - - - - - S 30 35 16 19 - - -
28/06:30am - - - - - SSE 28 32 15 17 - - -
28/06:00am - - - - - SSE 30 35 16 19 - - -
28/05:30am - - - - - SSE 32 37 17 20 - - -
28/05:00am - - - - - SSE 30 37 16 20 - - -
28/04:30am - - - - - S 28 33 15 18 - - -
28/04:00am - - - - - SSE 30 35 16 19 - - -
28/03:30am - - - - - SSE 30 35 16 19 - - -
28/03:00am - - - - - SSE 32 39 17 21 - - -
28/02:30am - - - - - SSE 32 37 17 20 - - -
28/02:00am - - - - - SSE 33 41 18 22 - - -
28/01:30am - - - - - SE 32 39 17 21 - - -
28/01:00am - - - - - SSE 30 37 16 20 - - -
28/12:30am - - - - - SSE 30 35 16 19 - - -
28/12:00am - - - - - SSE 32 39 17 21 - - -
 
Date/Time
EST
Temp
°C
App
Temp
°C
Dew
Point
°C
Rel
Hum
%
Delta-T
°C
Wind Press
QNH
hPa
Press
MSL
hPa
Rain since
9am
mm
Dir  Spd
km/h
Gust
km/h
Spd
kts
Gust
kts
27/11:30pm - - - - - SSE 32 39 17 21 - - -
27/11:00pm - - - - - SSE 32 37 17 20 - - -
27/10:30pm - - - - - SSE 30 37 16 20 - - -
27/10:00pm - - - - - SE 28 32 15 17 - - -
27/09:30pm - - - - - SE 26 32 14 17 - - -
27/09:00pm - - - - - SE 28 35 15 19 - - -
27/08:30pm - - - - - SE 30 35 16 19 - - -
27/08:00pm - - - - - ESE 28 35 15 19 - - -
27/07:30pm - - - - - SE 37 46 20 25 - - -
27/07:00pm - - - - - SE 35 43 19 23 - - -
27/06:30pm - - - - - SE 32 39 17 21 - - -
27/06:00pm - - - - - SE 32 39 17 21 - - -
27/05:30pm - - - - - SE 32 35 17 19 - - -
27/05:00pm - - - - - SE 32 37 17 20 - - -
27/04:30pm - - - - - ESE 33 41 18 22 - - -
27/04:00pm - - - - - ESE 30 39 16 21 - - -
27/03:30pm - - - - - ESE 33 37 18 20 - - -
27/03:00pm - - - - - SE 30 33 16 18 - - -
27/02:30pm - - - - - SE 35 41 19 22 - - -
27/02:00pm - - - - - SE 30 35 16 19 - - -
27/01:30pm - - - - - SE 28 32 15 17 - - -
27/01:00pm - - - - - SE 24 32 13 17 - - -
27/12:30pm - - - - - SE 22 28 12 15 - - -
27/12:00pm - - - - - SE 33 39 18 21 - - -
27/11:30am - - - - - SE 30 37 16 20 - - -
27/11:00am - - - - - ESE 20 24 11 13 - - -
27/10:30am - - - - - E 26 32 14 17 - - -
27/10:00am - - - - - ENE 17 20 9 11 - - -
27/09:30am - - - - - E 11 17 6 9 - - -
27/09:00am - - - - - ENE 26 33 14 18 - - -
27/08:30am - - - - - ESE 28 35 15 19 - - -
27/08:00am - - - - - ESE 30 35 16 19 - - -
27/07:30am - - - - - ESE 28 33 15 18 - - -
27/07:00am - - - - - SE 26 33 14 18 - - -
27/06:30am - - - - - SE 24 32 13 17 - - -
27/06:00am - - - - - SE 30 35 16 19 - - -
27/05:30am - - - - - SE 24 30 13 16 - - -
27/05:00am - - - - - S 15 24 8 13 - - -
27/04:30am - - - - - E 22 28 12 15 - - -
27/04:08am - - - - - ESE 41 59 22 32 - - -
27/04:00am - - - - - SSE 37 59 20 32 - - -
27/03:58am - - - - - SSE 35 57 19 31 - - -
27/03:30am - - - - - SSE 30 35 16 19 - - -
27/03:00am - - - - - S 30 35 16 19 - - -
27/02:30am - - - - - SSE 26 32 14 17 - - -
27/02:00am - - - - - SE 26 37 14 20 - - -
27/01:30am - - - - - SE 32 39 17 21 - - -
27/01:00am - - - - - SE 30 35 16 19 - - -
27/12:30am - - - - - SE 26 32 14 17 - - -
27/12:00am - - - - - ESE 35 44 19 24 - - -
 
Date/Time
EST
Temp
°C
App
Temp
°C
Dew
Point
°C
Rel
Hum
%
Delta-T
°C
Wind Press
QNH
hPa
Press
MSL
hPa
Rain since
9am
mm
Dir  Spd
km/h
Gust
km/h
Spd
kts
Gust
kts
26/11:44pm - - - - - SE 41 52 22 28 - - -
26/11:30pm - - - - - SE 33 41 18 22 - - -
26/11:00pm - - - - - SE 24 35 13 19 - - -
26/10:30pm - - - - - SE 24 30 13 16 - - -
26/10:00pm - - - - - ESE 26 32 14 17 - - -
26/09:30pm - - - - - ESE 28 32 15 17 - - -
26/09:00pm - - - - - SE 30 39 16 21 - - -
26/08:30pm - - - - - SE 30 35 16 19 - - -
26/08:00pm - - - - - SE 30 37 16 20 - - -
26/07:30pm - - - - - SE 35 43 19 23 - - -
26/07:00pm - - - - - SE 33 43 18 23 - - -
26/06:30pm - - - - - ESE 35 46 19 25 - - -
26/06:00pm - - - - - ESE 37 46 20 25 - - -
26/05:30pm - - - - - ESE 35 44 19 24 - - -
26/05:00pm - - - - - ESE 37 44 20 24 - - -
26/04:30pm - - - - - ESE 35 43 19 23 - - -
26/04:00pm - - - - - ESE 35 41 19 22 - - -
26/03:30pm - - - - - ESE 30 35 16 19 - - -
26/03:00pm - - - - - ESE 30 35 16 19 - - -
26/02:30pm - - - - - ESE 30 35 16 19 - - -
26/02:00pm - - - - - ESE 30 37 16 20 - - -
26/01:30pm - - - - - ESE 28 35 15 19 - - -
26/01:00pm - - - - - SE 33 37 18 20 - - -
26/12:30pm - - - - - SE 32 39 17 21 - - -
26/12:00pm - - - - - ESE 26 43 14 23 - - -
26/11:30am - - - - - SSE 32 39 17 21 - - -
26/11:00am - - - - - SSE 35 44 19 24 - - -
26/10:30am - - - - - SSE 32 35 17 19 - - -
26/10:00am - - - - - SSE 28 35 15 19 - - -
26/09:30am - - - - - SSE 26 32 14 17 - - -
26/09:00am - - - - - SE 26 32 14 17 - - -
26/08:30am - - - - - SSE 24 30 13 16 - - -
26/08:00am - - - - - SSE 30 35 16 19 - - -
26/07:30am - - - - - SSE 26 35 14 19 - - -
26/07:00am - - - - - SSE 30 35 16 19 - - -
26/06:30am - - - - - SSE 20 28 11 15 - - -
26/06:00am - - - - - SSE 24 28 13 15 - - -
26/05:30am - - - - - SSE 24 28 13 15 - - -
26/05:00am - - - - - SSE 28 33 15 18 - - -
26/04:30am - - - - - SSE 26 33 14 18 - - -
26/04:00am - - - - - SSE 30 35 16 19 - - -
26/03:30am - - - - - SSE 30 35 16 19 - - -
26/03:00am - - - - - SSE 30 35 16 19 - - -
26/02:30am - - - - - SSE 30 35 16 19 - - -
26/02:00am - - - - - SSE 32 37 17 20 - - -
26/01:30am - - - - - SSE 30 35 16 19 - - -
26/01:00am - - - - - SSE 30 35 16 19 - - -
26/12:30am - - - - - SE 32 37 17 20 - - -
26/12:00am - - - - - SE 33 41 18 22 - - -
 
Date/Time
EST
Temp
°C
App
Temp
°C
Dew
Point
°C
Rel
Hum
%
Delta-T
°C
Wind Press
QNH
hPa
Press
MSL
hPa
Rain since
9am
mm
Dir  Spd
km/h
Gust
km/h
Spd
kts
Gust
kts
25/11:30pm - - - - - SE 33 39 18 21 - - -
25/11:00pm - - - - - SE 33 43 18 23 - - -
25/10:30pm - - - - - SE 33 39 18 21 - - -
25/10:00pm - - - - - SE 32 41 17 22 - - -
25/09:30pm - - - - - SE 32 39 17 21 - - -
25/09:00pm - - - - - SE 35 41 19 22 - - -
25/08:30pm - - - - - SE 33 39 18 21 - - -
25/08:00pm - - - - - ESE 35 43 19 23 - - -
25/07:30pm - - - - - ESE 35 43 19 23 - - -
25/07:00pm - - - - - ESE 30 39 16 21 - - -
25/06:30pm - - - - - ESE 35 43 19 23 - - -

Latest Capital City Observations: Canberra | Sydney | Melbourne | Brisbane | Adelaide | Perth | Hobart | Darwin

Other Formats:

Comma delimited format used in spreadsheet applications
http://www.bom.gov.au/fwo/IDQ60901/IDQ60901.94581.axf

JavaScript Object Notation format (JSON) in row-major order
http://www.bom.gov.au/fwo/IDQ60901/IDQ60901.94581.json